sensor_id;sensor_type;location;lat;lon;timestamp;P1;durP1;ratioP1;P2;durP2;ratioP2
78931;SDS011;68331;53.362;55.932;2023-03-14T00:02:09;4.03;;;3.65;;
78931;SDS011;68331;53.362;55.932;2023-03-14T00:04:35;4.50;;;4.10;;
78931;SDS011;68331;53.362;55.932;2023-03-14T00:07:02;4.10;;;3.80;;
78931;SDS011;68331;53.362;55.932;2023-03-14T00:09:28;4.40;;;4.07;;
78931;SDS011;68331;53.362;55.932;2023-03-14T00:11:55;5.18;;;3.92;;
78931;SDS011;68331;53.362;55.932;2023-03-14T00:14:23;4.30;;;4.00;;
78931;SDS011;68331;53.362;55.932;2023-03-14T00:16:48;4.00;;;3.60;;
78931;SDS011;68331;53.362;55.932;2023-03-14T00:19:15;4.03;;;3.72;;
78931;SDS011;68331;53.362;55.932;2023-03-14T00:21:41;4.70;;;4.30;;
78931;SDS011;68331;53.362;55.932;2023-03-14T00:24:08;4.88;;;4.38;;
78931;SDS011;68331;53.362;55.932;2023-03-14T00:26:34;4.38;;;4.07;;
78931;SDS011;68331;53.362;55.932;2023-03-14T00:29:00;4.35;;;4.05;;
78931;SDS011;68331;53.362;55.932;2023-03-14T00:31:26;4.95;;;4.55;;
78931;SDS011;68331;53.362;55.932;2023-03-14T00:33:53;3.55;;;3.25;;
78931;SDS011;68331;53.362;55.932;2023-03-14T00:36:19;3.95;;;3.60;;
78931;SDS011;68331;53.362;55.932;2023-03-14T00:38:47;3.92;;;3.63;;
78931;SDS011;68331;53.362;55.932;2023-03-14T00:41:16;4.03;;;3.63;;
78931;SDS011;68331;53.362;55.932;2023-03-14T00:43:46;4.70;;;3.45;;
78931;SDS011;68331;53.362;55.932;2023-03-14T00:46:12;3.63;;;3.05;;
78931;SDS011;68331;53.362;55.932;2023-03-14T00:48:38;3.65;;;3.35;;
78931;SDS011;68331;53.362;55.932;2023-03-14T00:51:05;4.68;;;3.67;;
78931;SDS011;68331;53.362;55.932;2023-03-14T00:53:36;3.80;;;3.00;;
78931;SDS011;68331;53.362;55.932;2023-03-14T00:56:03;3.55;;;3.25;;
78931;SDS011;68331;53.362;55.932;2023-03-14T00:58:32;3.58;;;3.13;;
78931;SDS011;68331;53.362;55.932;2023-03-14T01:00:58;4.53;;;3.35;;
78931;SDS011;68331;53.362;55.932;2023-03-14T01:03:25;4.80;;;4.40;;
78931;SDS011;68331;53.362;55.932;2023-03-14T01:05:50;4.50;;;4.10;;
78931;SDS011;68331;53.362;55.932;2023-03-14T01:08:17;4.53;;;4.10;;
78931;SDS011;68331;53.362;55.932;2023-03-14T01:10:43;4.45;;;4.05;;
78931;SDS011;68331;53.362;55.932;2023-03-14T01:13:10;4.55;;;4.15;;
78931;SDS011;68331;53.362;55.932;2023-03-14T01:15:36;3.92;;;3.58;;
78931;SDS011;68331;53.362;55.932;2023-03-14T01:20:29;3.67;;;3.38;;
78931;SDS011;68331;53.362;55.932;2023-03-14T01:22:56;3.42;;;3.13;;
78931;SDS011;68331;53.362;55.932;2023-03-14T01:25:22;3.90;;;3.50;;
78931;SDS011;68331;53.362;55.932;2023-03-14T01:27:49;4.53;;;4.13;;
78931;SDS011;68331;53.362;55.932;2023-03-14T01:30:15;4.20;;;3.80;;
78931;SDS011;68331;53.362;55.932;2023-03-14T01:32:41;4.50;;;4.10;;
78931;SDS011;68331;53.362;55.932;2023-03-14T01:35:07;4.38;;;3.97;;
78931;SDS011;68331;53.362;55.932;2023-03-14T01:37:35;4.38;;;3.97;;
78931;SDS011;68331;53.362;55.932;2023-03-14T01:42:31;4.47;;;4.07;;
78931;SDS011;68331;53.362;55.932;2023-03-14T01:44:57;4.30;;;3.90;;
78931;SDS011;68331;53.362;55.932;2023-03-14T01:47:25;3.85;;;3.55;;
78931;SDS011;68331;53.362;55.932;2023-03-14T01:52:23;4.68;;;4.18;;
78931;SDS011;68331;53.362;55.932;2023-03-14T01:54:58;7.22;;;4.57;;
78931;SDS011;68331;53.362;55.932;2023-03-14T01:57:41;8.25;;;4.97;;
78931;SDS011;68331;53.362;55.932;2023-03-14T02:00:19;7.10;;;4.60;;
78931;SDS011;68331;53.362;55.932;2023-03-14T02:03:10;7.75;;;4.60;;
78931;SDS011;68331;53.362;55.932;2023-03-14T02:05:42;6.53;;;4.13;;
78931;SDS011;68331;53.362;55.932;2023-03-14T02:08:14;10.02;;;5.28;;
78931;SDS011;68331;53.362;55.932;2023-03-14T02:10:48;5.68;;;4.32;;
78931;SDS011;68331;53.362;55.932;2023-03-14T02:13:20;6.38;;;4.45;;
78931;SDS011;68331;53.362;55.932;2023-03-14T02:16:10;4.45;;;3.53;;
78931;SDS011;68331;53.362;55.932;2023-03-14T02:18:56;5.07;;;4.15;;
78931;SDS011;68331;53.362;55.932;2023-03-14T02:27:18;7.30;;;4.13;;
78931;SDS011;68331;53.362;55.932;2023-03-14T02:29:59;6.03;;;4.05;;
78931;SDS011;68331;53.362;55.932;2023-03-14T02:32:31;4.32;;;3.42;;
78931;SDS011;68331;53.362;55.932;2023-03-14T02:35:00;4.68;;;3.30;;
78931;SDS011;68331;53.362;55.932;2023-03-14T02:37:42;3.88;;;2.90;;
78931;SDS011;68331;53.362;55.932;2023-03-14T02:40:14;5.82;;;4.55;;
78931;SDS011;68331;53.362;55.932;2023-03-14T02:47:38;7.13;;;4.15;;
78931;SDS011;68331;53.362;55.932;2023-03-14T02:50:12;3.60;;;3.30;;
78931;SDS011;68331;53.362;55.932;2023-03-14T02:52:41;4.60;;;3.65;;
78931;SDS011;68331;53.362;55.932;2023-03-14T02:55:08;3.60;;;3.30;;
78931;SDS011;68331;53.362;55.932;2023-03-14T02:57:38;3.58;;;3.28;;
78931;SDS011;68331;53.362;55.932;2023-03-14T03:00:04;3.42;;;3.13;;
78931;SDS011;68331;53.362;55.932;2023-03-14T03:02:34;5.05;;;3.58;;
78931;SDS011;68331;53.362;55.932;2023-03-14T03:05:00;4.15;;;3.65;;
78931;SDS011;68331;53.362;55.932;2023-03-14T03:07:26;4.45;;;4.10;;
78931;SDS011;68331;53.362;55.932;2023-03-14T03:09:55;5.15;;;3.92;;
78931;SDS011;68331;53.362;55.932;2023-03-14T03:12:21;5.30;;;4.20;;
78931;SDS011;68331;53.362;55.932;2023-03-14T03:14:47;4.80;;;4.38;;
78931;SDS011;68331;53.362;55.932;2023-03-14T03:17:14;4.65;;;4.25;;
78931;SDS011;68331;53.362;55.932;2023-03-14T03:19:42;5.43;;;4.88;;
78931;SDS011;68331;53.362;55.932;2023-03-14T03:24:35;4.38;;;3.95;;
78931;SDS011;68331;53.362;55.932;2023-03-14T03:27:01;5.25;;;3.78;;
78931;SDS011;68331;53.362;55.932;2023-03-14T03:29:27;3.70;;;3.40;;
78931;SDS011;68331;53.362;55.932;2023-03-14T03:31:53;4.80;;;3.75;;
78931;SDS011;68331;53.362;55.932;2023-03-14T03:34:19;4.22;;;3.83;;
78931;SDS011;68331;53.362;55.932;2023-03-14T03:36:49;4.35;;;3.70;;
78931;SDS011;68331;53.362;55.932;2023-03-14T03:39:15;4.80;;;4.40;;
78931;SDS011;68331;53.362;55.932;2023-03-14T03:41:41;4.97;;;4.57;;
78931;SDS011;68331;53.362;55.932;2023-03-14T03:44:07;5.22;;;4.72;;
78931;SDS011;68331;53.362;55.932;2023-03-14T03:46:33;5.38;;;4.72;;
78931;SDS011;68331;53.362;55.932;2023-03-14T03:49:00;5.50;;;5.00;;
78931;SDS011;68331;53.362;55.932;2023-03-14T03:51:27;4.82;;;4.35;;
78931;SDS011;68331;53.362;55.932;2023-03-14T03:53:53;4.28;;;3.97;;
78931;SDS011;68331;53.362;55.932;2023-03-14T03:56:27;4.38;;;3.97;;
78931;SDS011;68331;53.362;55.932;2023-03-14T03:58:53;3.88;;;3.47;;
78931;SDS011;68331;53.362;55.932;2023-03-14T04:01:18;3.60;;;3.30;;
78931;SDS011;68331;53.362;55.932;2023-03-14T04:03:48;4.82;;;3.50;;
78931;SDS011;68331;53.362;55.932;2023-03-14T04:06:14;3.63;;;3.30;;
78931;SDS011;68331;53.362;55.932;2023-03-14T04:08:43;4.47;;;3.78;;
78931;SDS011;68331;53.362;55.932;2023-03-14T04:11:18;4.50;;;3.78;;
78931;SDS011;68331;53.362;55.932;2023-03-14T04:13:59;4.97;;;4.07;;
78931;SDS011;68331;53.362;55.932;2023-03-14T04:16:27;9.18;;;5.07;;
78931;SDS011;68331;53.362;55.932;2023-03-14T04:19:00;8.63;;;5.22;;
78931;SDS011;68331;53.362;55.932;2023-03-14T04:21:28;6.15;;;5.18;;
78931;SDS011;68331;53.362;55.932;2023-03-14T04:23:56;7.53;;;5.70;;
78931;SDS011;68331;53.362;55.932;2023-03-14T04:26:26;8.07;;;6.18;;
78931;SDS011;68331;53.362;55.932;2023-03-14T04:28:52;11.73;;;6.57;;
78931;SDS011;68331;53.362;55.932;2023-03-14T04:31:21;8.50;;;6.28;;
78931;SDS011;68331;53.362;55.932;2023-03-14T04:33:47;11.75;;;7.43;;
78931;SDS011;68331;53.362;55.932;2023-03-14T04:36:18;17.85;;;9.50;;
78931;SDS011;68331;53.362;55.932;2023-03-14T04:38:44;19.63;;;11.77;;
78931;SDS011;68331;53.362;55.932;2023-03-14T04:41:13;18.85;;;9.55;;
78931;SDS011;68331;53.362;55.932;2023-03-14T04:43:39;16.02;;;8.27;;
78931;SDS011;68331;53.362;55.932;2023-03-14T04:46:07;15.20;;;6.68;;
78931;SDS011;68331;53.362;55.932;2023-03-14T04:48:34;7.05;;;6.05;;
78931;SDS011;68331;53.362;55.932;2023-03-14T04:51:01;8.55;;;5.88;;
78931;SDS011;68331;53.362;55.932;2023-03-14T04:53:30;9.07;;;4.47;;
78931;SDS011;68331;53.362;55.932;2023-03-14T04:55:58;7.00;;;5.30;;
78931;SDS011;68331;53.362;55.932;2023-03-14T04:58:30;6.28;;;4.20;;
78931;SDS011;68331;53.362;55.932;2023-03-14T05:01:05;8.30;;;4.85;;
78931;SDS011;68331;53.362;55.932;2023-03-14T05:03:38;8.07;;;5.38;;
78931;SDS011;68331;53.362;55.932;2023-03-14T05:06:13;9.48;;;6.18;;
78931;SDS011;68331;53.362;55.932;2023-03-14T05:08:57;7.35;;;5.88;;
78931;SDS011;68331;53.362;55.932;2023-03-14T05:12:00;6.90;;;4.65;;
78931;SDS011;68331;53.362;55.932;2023-03-14T05:14:48;14.60;;;6.35;;
78931;SDS011;68331;53.362;55.932;2023-03-14T05:17:34;7.90;;;6.05;;
78931;SDS011;68331;53.362;55.932;2023-03-14T05:20:27;9.48;;;6.25;;
78931;SDS011;68331;53.362;55.932;2023-03-14T05:23:16;14.52;;;8.07;;
78931;SDS011;68331;53.362;55.932;2023-03-14T05:26:02;19.85;;;9.70;;
78931;SDS011;68331;53.362;55.932;2023-03-14T05:28:45;14.13;;;8.32;;
78931;SDS011;68331;53.362;55.932;2023-03-14T05:31:40;11.15;;;7.25;;
78931;SDS011;68331;53.362;55.932;2023-03-14T05:34:35;9.23;;;5.53;;
78931;SDS011;68331;53.362;55.932;2023-03-14T05:37:21;9.70;;;6.00;;
78931;SDS011;68331;53.362;55.932;2023-03-14T05:40:13;11.95;;;7.13;;
78931;SDS011;68331;53.362;55.932;2023-03-14T05:42:54;14.02;;;7.43;;
78931;SDS011;68331;53.362;55.932;2023-03-14T05:45:48;11.57;;;6.43;;
78931;SDS011;68331;53.362;55.932;2023-03-14T05:48:32;11.48;;;7.05;;
78931;SDS011;68331;53.362;55.932;2023-03-14T05:51:16;12.85;;;6.90;;
78931;SDS011;68331;53.362;55.932;2023-03-14T05:54:05;11.45;;;6.38;;
78931;SDS011;68331;53.362;55.932;2023-03-14T05:56:31;13.10;;;6.78;;
78931;SDS011;68331;53.362;55.932;2023-03-14T05:59:08;17.67;;;8.20;;
78931;SDS011;68331;53.362;55.932;2023-03-14T06:01:50;14.65;;;7.93;;
78931;SDS011;68331;53.362;55.932;2023-03-14T06:04:19;11.45;;;6.22;;
78931;SDS011;68331;53.362;55.932;2023-03-14T06:06:50;10.40;;;6.10;;
78931;SDS011;68331;53.362;55.932;2023-03-14T06:09:16;10.45;;;5.97;;
78931;SDS011;68331;53.362;55.932;2023-03-14T06:11:45;8.77;;;5.25;;
78931;SDS011;68331;53.362;55.932;2023-03-14T06:14:12;9.93;;;6.03;;
78931;SDS011;68331;53.362;55.932;2023-03-14T06:16:41;8.45;;;6.90;;
78931;SDS011;68331;53.362;55.932;2023-03-14T06:19:08;11.77;;;6.35;;
78931;SDS011;68331;53.362;55.932;2023-03-14T06:21:35;11.35;;;6.47;;
78931;SDS011;68331;53.362;55.932;2023-03-14T06:24:01;12.63;;;7.00;;
78931;SDS011;68331;53.362;55.932;2023-03-14T06:26:29;9.07;;;5.13;;
78931;SDS011;68331;53.362;55.932;2023-03-14T06:28:55;8.20;;;4.55;;
78931;SDS011;68331;53.362;55.932;2023-03-14T06:31:21;8.60;;;4.80;;
78931;SDS011;68331;53.362;55.932;2023-03-14T06:33:53;6.22;;;4.78;;
78931;SDS011;68331;53.362;55.932;2023-03-14T06:36:19;9.13;;;5.25;;
78931;SDS011;68331;53.362;55.932;2023-03-14T06:38:47;11.07;;;6.13;;
78931;SDS011;68331;53.362;55.932;2023-03-14T06:41:13;11.55;;;5.85;;
78931;SDS011;68331;53.362;55.932;2023-03-14T06:43:42;11.93;;;6.10;;
78931;SDS011;68331;53.362;55.932;2023-03-14T06:46:08;11.40;;;6.75;;
78931;SDS011;68331;53.362;55.932;2023-03-14T06:48:37;10.10;;;6.88;;
78931;SDS011;68331;53.362;55.932;2023-03-14T06:51:03;9.82;;;6.57;;
78931;SDS011;68331;53.362;55.932;2023-03-14T06:53:29;11.23;;;6.53;;
78931;SDS011;68331;53.362;55.932;2023-03-14T06:55:58;11.80;;;5.60;;
78931;SDS011;68331;53.362;55.932;2023-03-14T06:58:26;10.45;;;8.02;;
78931;SDS011;68331;53.362;55.932;2023-03-14T07:00:52;11.30;;;6.35;;
78931;SDS011;68331;53.362;55.932;2023-03-14T07:03:23;10.80;;;6.93;;
78931;SDS011;68331;53.362;55.932;2023-03-14T07:05:52;7.75;;;5.72;;
78931;SDS011;68331;53.362;55.932;2023-03-14T07:08:18;6.55;;;4.75;;
78931;SDS011;68331;53.362;55.932;2023-03-14T07:10:44;7.82;;;5.00;;
78931;SDS011;68331;53.362;55.932;2023-03-14T07:13:10;6.22;;;4.50;;
78931;SDS011;68331;53.362;55.932;2023-03-14T07:15:47;13.70;;;7.30;;
78931;SDS011;68331;53.362;55.932;2023-03-14T07:18:13;15.88;;;8.90;;
78931;SDS011;68331;53.362;55.932;2023-03-14T07:20:39;14.48;;;9.40;;
78931;SDS011;68331;53.362;55.932;2023-03-14T07:25:44;10.73;;;7.07;;
78931;SDS011;68331;53.362;55.932;2023-03-14T07:28:10;15.25;;;10.13;;
78931;SDS011;68331;53.362;55.932;2023-03-14T07:30:38;15.45;;;9.88;;
78931;SDS011;68331;53.362;55.932;2023-03-14T07:33:11;11.50;;;7.28;;
78931;SDS011;68331;53.362;55.932;2023-03-14T07:35:36;10.80;;;6.38;;
78931;SDS011;68331;53.362;55.932;2023-03-14T07:38:03;8.07;;;5.60;;
78931;SDS011;68331;53.362;55.932;2023-03-14T07:40:35;7.18;;;5.28;;
78931;SDS011;68331;53.362;55.932;2023-03-14T07:43:02;7.53;;;5.93;;
78931;SDS011;68331;53.362;55.932;2023-03-14T07:45:39;9.55;;;6.10;;
78931;SDS011;68331;53.362;55.932;2023-03-14T07:48:05;9.18;;;6.03;;
78931;SDS011;68331;53.362;55.932;2023-03-14T07:50:31;11.68;;;6.80;;
78931;SDS011;68331;53.362;55.932;2023-03-14T07:52:57;9.27;;;5.75;;
78931;SDS011;68331;53.362;55.932;2023-03-14T07:55:23;9.43;;;6.47;;
78931;SDS011;68331;53.362;55.932;2023-03-14T07:57:49;14.68;;;7.80;;
78931;SDS011;68331;53.362;55.932;2023-03-14T08:00:15;18.13;;;7.78;;
78931;SDS011;68331;53.362;55.932;2023-03-14T08:02:41;16.55;;;8.63;;
78931;SDS011;68331;53.362;55.932;2023-03-14T08:05:07;15.05;;;7.32;;
78931;SDS011;68331;53.362;55.932;2023-03-14T08:07:34;18.85;;;8.82;;
78931;SDS011;68331;53.362;55.932;2023-03-14T08:10:00;14.52;;;7.40;;
78931;SDS011;68331;53.362;55.932;2023-03-14T08:12:26;15.05;;;7.47;;
78931;SDS011;68331;53.362;55.932;2023-03-14T08:14:52;11.55;;;6.25;;
78931;SDS011;68331;53.362;55.932;2023-03-14T08:17:18;12.43;;;6.63;;
78931;SDS011;68331;53.362;55.932;2023-03-14T08:19:44;15.32;;;8.55;;
78931;SDS011;68331;53.362;55.932;2023-03-14T08:22:10;9.38;;;5.38;;
78931;SDS011;68331;53.362;55.932;2023-03-14T08:24:36;13.68;;;6.63;;
78931;SDS011;68331;53.362;55.932;2023-03-14T08:27:02;12.38;;;7.13;;
78931;SDS011;68331;53.362;55.932;2023-03-14T08:29:28;14.10;;;7.30;;
78931;SDS011;68331;53.362;55.932;2023-03-14T08:31:54;11.50;;;6.82;;
78931;SDS011;68331;53.362;55.932;2023-03-14T08:34:20;12.35;;;6.20;;
78931;SDS011;68331;53.362;55.932;2023-03-14T08:36:47;9.27;;;4.70;;
78931;SDS011;68331;53.362;55.932;2023-03-14T08:39:13;10.43;;;5.45;;
78931;SDS011;68331;53.362;55.932;2023-03-14T08:41:39;10.45;;;5.28;;
78931;SDS011;68331;53.362;55.932;2023-03-14T08:44:08;10.20;;;5.68;;
78931;SDS011;68331;53.362;55.932;2023-03-14T08:46:35;7.70;;;5.03;;
78931;SDS011;68331;53.362;55.932;2023-03-14T08:49:01;9.45;;;5.03;;
78931;SDS011;68331;53.362;55.932;2023-03-14T08:51:27;11.23;;;6.05;;
78931;SDS011;68331;53.362;55.932;2023-03-14T08:53:53;10.82;;;6.00;;
78931;SDS011;68331;53.362;55.932;2023-03-14T08:56:19;11.70;;;5.18;;
78931;SDS011;68331;53.362;55.932;2023-03-14T08:58:44;7.18;;;5.22;;
78931;SDS011;68331;53.362;55.932;2023-03-14T09:01:10;8.70;;;5.47;;
78931;SDS011;68331;53.362;55.932;2023-03-14T09:03:36;8.00;;;4.78;;
78931;SDS011;68331;53.362;55.932;2023-03-14T09:06:04;6.35;;;4.25;;
78931;SDS011;68331;53.362;55.932;2023-03-14T09:08:31;7.38;;;4.60;;
78931;SDS011;68331;53.362;55.932;2023-03-14T09:10:59;8.73;;;4.78;;
78931;SDS011;68331;53.362;55.932;2023-03-14T09:13:25;7.85;;;4.93;;
78931;SDS011;68331;53.362;55.932;2023-03-14T09:15:51;9.55;;;5.90;;
78931;SDS011;68331;53.362;55.932;2023-03-14T09:18:18;12.48;;;5.90;;
78931;SDS011;68331;53.362;55.932;2023-03-14T09:20:44;14.40;;;7.03;;
78931;SDS011;68331;53.362;55.932;2023-03-14T09:23:10;6.90;;;4.40;;
78931;SDS011;68331;53.362;55.932;2023-03-14T09:25:36;4.55;;;3.33;;
78931;SDS011;68331;53.362;55.932;2023-03-14T09:28:02;6.93;;;4.80;;
78931;SDS011;68331;53.362;55.932;2023-03-14T09:30:28;4.95;;;4.10;;
78931;SDS011;68331;53.362;55.932;2023-03-14T09:32:54;5.80;;;3.60;;
78931;SDS011;68331;53.362;55.932;2023-03-14T09:35:20;3.58;;;3.08;;
78931;SDS011;68331;53.362;55.932;2023-03-14T09:37:46;5.85;;;3.28;;
78931;SDS011;68331;53.362;55.932;2023-03-14T09:40:12;5.38;;;2.63;;
78931;SDS011;68331;53.362;55.932;2023-03-14T09:42:44;3.25;;;2.92;;
78931;SDS011;68331;53.362;55.932;2023-03-14T09:45:11;7.05;;;4.28;;
78931;SDS011;68331;53.362;55.932;2023-03-14T09:47:42;9.50;;;4.80;;
78931;SDS011;68331;53.362;55.932;2023-03-14T09:50:12;6.95;;;4.18;;
78931;SDS011;68331;53.362;55.932;2023-03-14T09:52:40;9.50;;;4.72;;
78931;SDS011;68331;53.362;55.932;2023-03-14T09:55:15;10.80;;;5.15;;
78931;SDS011;68331;53.362;55.932;2023-03-14T09:57:43;6.75;;;5.00;;
78931;SDS011;68331;53.362;55.932;2023-03-14T10:00:26;8.10;;;4.78;;
78931;SDS011;68331;53.362;55.932;2023-03-14T10:02:58;5.25;;;4.03;;
78931;SDS011;68331;53.362;55.932;2023-03-14T10:05:38;5.45;;;3.55;;
78931;SDS011;68331;53.362;55.932;2023-03-14T10:08:06;5.30;;;3.00;;
78931;SDS011;68331;53.362;55.932;2023-03-14T10:10:35;5.00;;;4.50;;
78931;SDS011;68331;53.362;55.932;2023-03-14T10:13:13;5.32;;;3.60;;
78931;SDS011;68331;53.362;55.932;2023-03-14T10:15:52;4.10;;;3.08;;
78931;SDS011;68331;53.362;55.932;2023-03-14T10:18:28;7.28;;;4.22;;
78931;SDS011;68331;53.362;55.932;2023-03-14T10:24:06;3.83;;;2.72;;
78931;SDS011;68331;53.362;55.932;2023-03-14T10:26:54;3.50;;;2.30;;
78931;SDS011;68331;53.362;55.932;2023-03-14T10:29:23;2.75;;;2.40;;
78931;SDS011;68331;53.362;55.932;2023-03-14T10:31:53;15.73;;;8.82;;
78931;SDS011;68331;53.362;55.932;2023-03-14T10:36:54;6.22;;;3.55;;
78931;SDS011;68331;53.362;55.932;2023-03-14T10:42:21;3.97;;;3.40;;
78931;SDS011;68331;53.362;55.932;2023-03-14T10:44:58;4.03;;;3.22;;
78931;SDS011;68331;53.362;55.932;2023-03-14T10:47:31;5.38;;;3.20;;
78931;SDS011;68331;53.362;55.932;2023-03-14T10:49:59;3.67;;;3.15;;
78931;SDS011;68331;53.362;55.932;2023-03-14T10:52:51;4.95;;;3.47;;
78931;SDS011;68331;53.362;55.932;2023-03-14T10:55:19;6.03;;;3.75;;
78931;SDS011;68331;53.362;55.932;2023-03-14T10:57:45;4.93;;;4.13;;
78931;SDS011;68331;53.362;55.932;2023-03-14T11:05:44;3.65;;;2.88;;
78931;SDS011;68331;53.362;55.932;2023-03-14T11:08:41;3.25;;;2.95;;
78931;SDS011;68331;53.362;55.932;2023-03-14T11:13:45;3.97;;;2.40;;
78931;SDS011;68331;53.362;55.932;2023-03-14T11:16:31;3.90;;;3.17;;
78931;SDS011;68331;53.362;55.932;2023-03-14T11:25:07;2.70;;;2.50;;
78931;SDS011;68331;53.362;55.932;2023-03-14T11:40:59;2.65;;;2.45;;
78931;SDS011;68331;53.362;55.932;2023-03-14T11:43:33;2.88;;;2.30;;
78931;SDS011;68331;53.362;55.932;2023-03-14T11:46:16;2.80;;;2.60;;
78931;SDS011;68331;53.362;55.932;2023-03-14T11:51:36;2.60;;;2.40;;
78931;SDS011;68331;53.362;55.932;2023-03-14T11:56:37;4.10;;;2.38;;
78931;SDS011;68331;53.362;55.932;2023-03-14T11:59:19;3.50;;;2.53;;
78931;SDS011;68331;53.362;55.932;2023-03-14T12:09:47;2.75;;;2.22;;
78931;SDS011;68331;53.362;55.932;2023-03-14T12:12:17;2.58;;;2.00;;
78931;SDS011;68331;53.362;55.932;2023-03-14T12:14:58;3.00;;;2.00;;
78931;SDS011;68331;53.362;55.932;2023-03-14T12:17:27;2.50;;;2.30;;
78931;SDS011;68331;53.362;55.932;2023-03-14T12:20:05;3.22;;;2.47;;
78931;SDS011;68331;53.362;55.932;2023-03-14T12:23:02;3.13;;;2.70;;
78931;SDS011;68331;53.362;55.932;2023-03-14T12:25:30;2.92;;;2.72;;
78931;SDS011;68331;53.362;55.932;2023-03-14T12:38:03;3.30;;;2.63;;
78931;SDS011;68331;53.362;55.932;2023-03-14T12:40:37;2.58;;;2.38;;
78931;SDS011;68331;53.362;55.932;2023-03-14T12:43:24;3.03;;;2.35;;
78931;SDS011;68331;53.362;55.932;2023-03-14T12:48:49;3.25;;;2.30;;
78931;SDS011;68331;53.362;55.932;2023-03-14T12:51:20;3.75;;;3.45;;
78931;SDS011;68331;53.362;55.932;2023-03-14T12:54:26;2.58;;;2.38;;
78931;SDS011;68331;53.362;55.932;2023-03-14T13:00:02;2.75;;;2.55;;
78931;SDS011;68331;53.362;55.932;2023-03-14T13:02:44;2.33;;;2.10;;
78931;SDS011;68331;53.362;55.932;2023-03-14T13:05:23;2.50;;;2.30;;
78931;SDS011;68331;53.362;55.932;2023-03-14T13:10:26;2.55;;;2.20;;
78931;SDS011;68331;53.362;55.932;2023-03-14T13:13:01;3.63;;;2.70;;
78931;SDS011;68331;53.362;55.932;2023-03-14T13:15:38;2.97;;;2.42;;
78931;SDS011;68331;53.362;55.932;2023-03-14T13:18:17;2.75;;;2.53;;
78931;SDS011;68331;53.362;55.932;2023-03-14T13:23:55;3.47;;;2.42;;
78931;SDS011;68331;53.362;55.932;2023-03-14T13:26:34;4.38;;;2.33;;
78931;SDS011;68331;53.362;55.932;2023-03-14T13:29:11;3.38;;;2.40;;
78931;SDS011;68331;53.362;55.932;2023-03-14T13:31:52;4.18;;;3.25;;
78931;SDS011;68331;53.362;55.932;2023-03-14T13:34:20;6.53;;;4.88;;
78931;SDS011;68331;53.362;55.932;2023-03-14T13:36:46;4.32;;;3.38;;
78931;SDS011;68331;53.362;55.932;2023-03-14T13:39:19;4.50;;;3.58;;
78931;SDS011;68331;53.362;55.932;2023-03-14T13:42:00;5.53;;;3.65;;
78931;SDS011;68331;53.362;55.932;2023-03-14T13:44:32;4.15;;;3.30;;
78931;SDS011;68331;53.362;55.932;2023-03-14T13:47:02;4.07;;;3.53;;
78931;SDS011;68331;53.362;55.932;2023-03-14T13:49:31;4.40;;;3.55;;
78931;SDS011;68331;53.362;55.932;2023-03-14T13:52:01;4.20;;;3.10;;
78931;SDS011;68331;53.362;55.932;2023-03-14T13:54:29;4.65;;;2.85;;
78931;SDS011;68331;53.362;55.932;2023-03-14T13:57:04;2.70;;;2.50;;
78931;SDS011;68331;53.362;55.932;2023-03-14T13:59:33;5.78;;;4.35;;
78931;SDS011;68331;53.362;55.932;2023-03-14T14:02:04;3.97;;;3.10;;
78931;SDS011;68331;53.362;55.932;2023-03-14T14:04:39;4.72;;;3.28;;
78931;SDS011;68331;53.362;55.932;2023-03-14T14:07:06;3.38;;;3.08;;
78931;SDS011;68331;53.362;55.932;2023-03-14T14:09:38;4.63;;;3.45;;
78931;SDS011;68331;53.362;55.932;2023-03-14T14:12:10;3.22;;;2.92;;
78931;SDS011;68331;53.362;55.932;2023-03-14T14:17:20;3.65;;;2.67;;
78931;SDS011;68331;53.362;55.932;2023-03-14T14:19:49;2.80;;;2.53;;
78931;SDS011;68331;53.362;55.932;2023-03-14T14:22:17;2.92;;;2.30;;
78931;SDS011;68331;53.362;55.932;2023-03-14T14:24:44;3.45;;;3.15;;
78931;SDS011;68331;53.362;55.932;2023-03-14T14:27:14;3.35;;;3.05;;
78931;SDS011;68331;53.362;55.932;2023-03-14T14:29:59;4.53;;;3.53;;
78931;SDS011;68331;53.362;55.932;2023-03-14T14:32:38;4.50;;;2.45;;
78931;SDS011;68331;53.362;55.932;2023-03-14T14:35:06;2.97;;;2.78;;
78931;SDS011;68331;53.362;55.932;2023-03-14T14:37:41;2.80;;;2.60;;
78931;SDS011;68331;53.362;55.932;2023-03-14T14:42:41;3.78;;;3.35;;
78931;SDS011;68331;53.362;55.932;2023-03-14T14:45:27;5.75;;;4.43;;
78931;SDS011;68331;53.362;55.932;2023-03-14T14:48:04;3.13;;;2.75;;
78931;SDS011;68331;53.362;55.932;2023-03-14T14:53:26;3.78;;;2.53;;
78931;SDS011;68331;53.362;55.932;2023-03-14T14:56:13;4.18;;;3.22;;
78931;SDS011;68331;53.362;55.932;2023-03-14T14:58:44;3.63;;;3.17;;
78931;SDS011;68331;53.362;55.932;2023-03-14T15:01:14;4.10;;;3.55;;
78931;SDS011;68331;53.362;55.932;2023-03-14T15:03:46;4.93;;;3.17;;
78931;SDS011;68331;53.362;55.932;2023-03-14T15:06:17;4.68;;;3.92;;
78931;SDS011;68331;53.362;55.932;2023-03-14T15:08:44;5.30;;;3.70;;
78931;SDS011;68331;53.362;55.932;2023-03-14T15:11:17;4.03;;;3.47;;
78931;SDS011;68331;53.362;55.932;2023-03-14T15:13:45;4.97;;;4.15;;
78931;SDS011;68331;53.362;55.932;2023-03-14T15:16:11;6.68;;;3.95;;
78931;SDS011;68331;53.362;55.932;2023-03-14T15:18:39;5.57;;;3.60;;
78931;SDS011;68331;53.362;55.932;2023-03-14T15:21:05;5.75;;;3.75;;
78931;SDS011;68331;53.362;55.932;2023-03-14T15:23:32;10.90;;;7.63;;
78931;SDS011;68331;53.362;55.932;2023-03-14T15:25:58;8.80;;;5.07;;
78931;SDS011;68331;53.362;55.932;2023-03-14T15:28:27;4.35;;;3.75;;
78931;SDS011;68331;53.362;55.932;2023-03-14T15:30:56;7.68;;;3.75;;
78931;SDS011;68331;53.362;55.932;2023-03-14T15:33:24;3.90;;;3.05;;
78931;SDS011;68331;53.362;55.932;2023-03-14T15:35:52;4.80;;;3.10;;
78931;SDS011;68331;53.362;55.932;2023-03-14T15:38:20;3.42;;;3.08;;
78931;SDS011;68331;53.362;55.932;2023-03-14T15:40:48;2.88;;;2.67;;
78931;SDS011;68331;53.362;55.932;2023-03-14T15:43:16;2.92;;;2.72;;
78931;SDS011;68331;53.362;55.932;2023-03-14T15:45:44;3.22;;;2.92;;
78931;SDS011;68331;53.362;55.932;2023-03-14T15:48:17;3.08;;;2.75;;
78931;SDS011;68331;53.362;55.932;2023-03-14T15:50:45;4.05;;;2.63;;
78931;SDS011;68331;53.362;55.932;2023-03-14T15:53:11;2.95;;;2.65;;
78931;SDS011;68331;53.362;55.932;2023-03-14T15:55:37;2.80;;;2.50;;
78931;SDS011;68331;53.362;55.932;2023-03-14T15:58:03;4.45;;;2.97;;
78931;SDS011;68331;53.362;55.932;2023-03-14T16:00:29;3.20;;;2.90;;
78931;SDS011;68331;53.362;55.932;2023-03-14T16:02:56;3.17;;;2.72;;
78931;SDS011;68331;53.362;55.932;2023-03-14T16:05:22;5.03;;;3.35;;
78931;SDS011;68331;53.362;55.932;2023-03-14T16:07:48;3.47;;;3.17;;
78931;SDS011;68331;53.362;55.932;2023-03-14T16:10:14;3.25;;;2.92;;
78931;SDS011;68331;53.362;55.932;2023-03-14T16:12:41;3.00;;;2.80;;
78931;SDS011;68331;53.362;55.932;2023-03-14T16:15:08;3.50;;;3.20;;
78931;SDS011;68331;53.362;55.932;2023-03-14T16:17:34;2.95;;;2.75;;
78931;SDS011;68331;53.362;55.932;2023-03-14T16:22:29;3.15;;;2.75;;
78931;SDS011;68331;53.362;55.932;2023-03-14T16:25:04;5.07;;;2.65;;
78931;SDS011;68331;53.362;55.932;2023-03-14T16:27:31;3.45;;;2.83;;
78931;SDS011;68331;53.362;55.932;2023-03-14T16:29:57;3.35;;;2.85;;
78931;SDS011;68331;53.362;55.932;2023-03-14T16:32:28;4.63;;;2.60;;
78931;SDS011;68331;53.362;55.932;2023-03-14T16:34:54;5.65;;;3.05;;
78931;SDS011;68331;53.362;55.932;2023-03-14T16:37:20;3.33;;;2.30;;